M I D A S
Marine Information and Data Acquisition System
Tripno 965 of the Zeeleeuw from 2005-10-03 08:26:36 to 2005-10-03 16:56:54
Back to CruiseResearch ActivitiesStationsMapUnderway DataData graphs

EquipmentUnitsComment
TimeDGPSUTC
LatitudeDGPSDM.mWGS84
LongitudeDGPSDM.mWGS84
TemperatureSBE03/SBE38deg celciusITS90
ConductivitySBE21S/mITS90
SalinitySBE21 Practical Salinity Units
ChlorophylAChelsea fluorimeterg/lCalibrated in Aceton
Missing or incorrect values are displayed as -999
Sea surface data collected by the RV Zeeleeuw from 2005-10-03 08:24:20 to 2005-10-03 16:57:11
Time Latitude Longitude Temperature Conductivity Salinity ChlorophylA
2005-10-03 08:25:25 51°13.616 2°56.045 -999 0.056954 0.322121 -0.71383
2005-10-03 08:26:25 51°13.635 2°55.959 -999 0.056954 0.322127 -0.71383
2005-10-03 08:27:25 51°13.672 2°55.863 -999 0.056954 0.322145 -0.71383
2005-10-03 08:28:26 51°13.704 2°55.761 -999 0.056954 0.322151 -0.71383
2005-10-03 08:29:25 51°13.709 2°55.749 -999 0.056954 0.322139 -0.71383
2005-10-03 08:30:25 51°13.718 2°55.739 -999 0.056954 0.322186 -0.71383
2005-10-03 08:31:25 51°13.792 2°55.672 -999 0.056954 0.322157 -0.71383
2005-10-03 08:32:25 51°13.907 2°55.578 -999 0.056954 0.322192 -0.71383
2005-10-03 08:33:25 51°14.037 2°55.484 -999 0.056954 0.322216 -0.71383
2005-10-03 08:34:25 51°14.179 2°55.371 -999 0.056954 0.32224 -0.71383
2005-10-03 08:35:25 51°14.3 2°55.187 -999 0.056954 0.322258 -0.71383
2005-10-03 08:36:25 51°14.416 2°54.96 -999 0.056954 0.32227 -0.71383
2005-10-03 08:37:24 51°14.569 2°54.783 -999 0.056954 0.322294 -0.71383
2005-10-03 08:38:25 51°14.753 2°54.625 -999 0.056954 0.322336 -0.71383
2005-10-03 08:39:25 51°14.944 2°54.492 -999 3.668479 27.606202 -0.916087
2005-10-03 08:40:25 51°15.136 2°54.376 -999 3.980582 31.306053 -0.848668
2005-10-03 08:41:25 51°15.328 2°54.258 -999 3.981204 31.294097 -0.781249
2005-10-03 08:42:25 51°15.521 2°54.137 -999 3.989185 31.375632 -0.848668
2005-10-03 08:43:25 51°15.713 2°54.009 -999 3.992503 31.465634 -0.983506
2005-10-03 08:44:24 51°15.898 2°53.883 -999 3.996337 31.461001 -0.814958
2005-10-03 08:45:25 51°16.089 2°53.751 -999 4.007843 31.525568 -0.545283
2005-10-03 08:46:25 51°16.282 2°53.644 -999 4.015514 31.611698 -0.814958
2005-10-03 08:47:25 51°16.475 2°53.541 -999 4.03521 31.804902 -0.848668
2005-10-03 08:48:25 51°16.669 2°53.444 -999 4.061852 32.030547 -0.74754
2005-10-03 08:49:25 51°16.864 2°53.345 -999 4.061333 32.019387 -0.646411
2005-10-03 08:50:25 51°17.053 2°53.259 -999 4.048789 31.909129 -0.545283
2005-10-03 08:51:24 51°17.245 2°53.192 -999 4.038734 31.81226 -0.71383
2005-10-03 08:52:25 51°17.43 2°53.256 -999 4.036038 31.776808 -0.680121
2005-10-03 08:53:24 51°17.592 2°53.415 -999 4.037904 31.793841 -0.71383
2005-10-03 08:54:25 51°17.754 2°53.589 -999 4.040288 31.806912 -0.680121
2005-10-03 08:55:25 51°17.917 2°53.745 -999 4.041117 31.791937 -0.545283
2005-10-03 08:56:24 51°18.079 2°53.891 -999 4.035415 31.712581 -0.444155
2005-10-03 08:57:25 51°18.247 2°54.041 -999 4.028988 31.634183 -0.410446
2005-10-03 08:58:24 51°18.407 2°54.185 -999 4.023597 31.568216 -0.410446
2005-10-03 08:59:25 51°18.569 2°54.346 -999 4.019347 31.51489 -0.477864
2005-10-03 09:00:25 51°18.728 2°54.503 -999 4.016133 31.477774 -0.477864
2005-10-03 09:01:25 51°18.886 2°54.664 -999 4.009706 31.419066 -0.612702
2005-10-03 09:02:25 51°19.04 2°54.831 -999 4.013541 31.432592 -0.646411
2005-10-03 09:03:24 51°19.195 2°54.992 -999 4.012919 31.423946 -0.646411
2005-10-03 09:04:25 51°19.356 2°55.158 -999 4.011365 31.414237 -0.646411
2005-10-03 09:05:25 51°19.46 2°55.408 -999 4.013645 31.428992 -0.612702
2005-10-03 09:06:25 51°19.563 2°55.66 -999 4.013127 31.426399 -0.612702
2005-10-03 09:07:25 51°19.669 2°55.909 -999 4.020383 31.488444 -0.612702
2005-10-03 09:08:25 51°19.778 2°56.157 -999 4.025566 31.533693 -0.646411
2005-10-03 09:09:25 51°19.889 2°56.401 -999 4.028469 31.560975 -0.646411
2005-10-03 09:10:25 51°19.994 2°56.653 -999 4.032615 31.601071 -0.612702
2005-10-03 09:11:25 51°20.1 2°56.904 -999 4.037902 31.642721 -0.578993
2005-10-03 09:12:24 51°20.207 2°57.146 -999 4.03956 31.653322 -0.578993
2005-10-03 09:13:25 51°20.32 2°57.396 -999 4.039975 31.653703 -0.578993
2005-10-03 09:14:25 51°20.426 2°57.65 -999 4.044225 31.67786 -0.477864
2005-10-03 09:15:25 51°20.529 2°57.908 -999 4.041633 31.659765 -0.444155
2005-10-03 09:16:25 51°20.632 2°58.169 -999 4.040597 31.652656 -0.410446
2005-10-03 09:17:25 51°20.736 2°58.433 -999 4.039353 31.64244 -0.511574
2005-10-03 09:18:25 51°20.839 2°58.698 -999 4.037591 31.632231 -0.511574
2005-10-03 09:19:25 51°20.93 2°58.975 -999 4.035207 31.61594 -0.511574
2005-10-03 09:20:25 51°21.02 2°59.253 -999 4.032926 31.599257 -0.477864
2005-10-03 09:21:25 51°21.112 2°59.532 -999 4.030023 31.575848 -0.477864
2005-10-03 09:22:25 51°21.208 2°59.808 -999 4.027536 31.555413 -0.477864
2005-10-03 09:23:25 51°21.372 2°59.972 -999 4.026499 31.547007 -0.444155
2005-10-03 09:24:25 51°21.544 3°0.13 -999 4.027225 31.546883 -0.410446
2005-10-03 09:25:25 51°21.716 3°0.286 -999 4.030231 31.566669 -0.410446
2005-10-03 09:26:25 51°21.888 3°0.446 -999 4.033548 31.591752 -0.343027
2005-10-03 09:27:25 51°22.064 3°0.596 -999 4.03645 31.614506 -0.275608
2005-10-03 09:28:25 51°22.237 3°0.749 -999 4.052726 31.757302 -0.208189
2005-10-03 09:29:25 51°22.41 3°0.904 -999 4.060086 31.824224 -0.275608
2005-10-03 09:30:25 51°22.583 3°1.062 -999 4.055318 31.785802 -0.343027
2005-10-03 09:31:25 51°22.757 3°1.224 -999 4.054177 31.778439 -0.376736
2005-10-03 09:32:25 51°22.931 3°1.383 -999 4.0633 31.851662 -0.376736
2005-10-03 09:33:25 51°23.104 3°1.544 -999 4.074289 31.937279 -0.343027
2005-10-03 09:34:25 51°23.276 3°1.705 -999 4.081131 31.988593 -0.376736
2005-10-03 09:35:25 51°23.449 3°1.866 -999 4.089529 32.05677 -0.444155
2005-10-03 09:36:25 51°23.623 3°2.028 -999 4.102696 32.151538 -0.444155
2005-10-03 09:37:25 51°23.797 3°2.19 -999 4.112027 32.217324 -0.444155
2005-10-03 09:38:25 51°23.97 3°2.351 -999 4.122602 32.285383 -0.511574
2005-10-03 09:39:25 51°24.144 3°2.516 -999 4.121046 32.267841 -0.511574
2005-10-03 09:40:25 51°24.316 3°2.682 -999 4.12115 32.262163 -0.477864
2005-10-03 09:41:25 51°24.492 3°2.838 -999 4.12312 32.270811 -0.410446
2005-10-03 09:42:25 51°24.668 3°3.001 -999 4.124468 32.272708 -0.343027
2005-10-03 09:43:25 51°24.84 3°3.161 -999 4.121875 32.241531 -0.343027
2005-10-03 09:44:25 51°25.009 3°3.326 -999 4.113892 32.178424 -0.275608
2005-10-03 09:45:25 51°25.177 3°3.49 -999 4.102799 32.10782 -0.208189
2005-10-03 09:46:25 51°25.336 3°3.672 -999 4.09295 32.051941 -0.005933
2005-10-03 09:47:25 51°25.434 3°3.944 -999 4.082686 32.000879 0.196324
2005-10-03 09:48:25 51°25.518 3°4.227 -999 4.078747 31.984108 0.196324
2005-10-03 09:49:25 51°25.606 3°4.509 -999 4.078229 31.985467 0.128905
2005-10-03 09:50:25 51°25.69 3°4.795 -999 4.07968 31.993578 0.061486
2005-10-03 09:51:25 51°25.78 3°5.077 -999 4.080717 31.996751 0.027777
2005-10-03 09:52:25 51°25.869 3°5.358 -999 4.082168 32.002239 0.027777
2005-10-03 09:53:25 51°25.949 3°5.647 -999 4.08393 32.007826 -0.005933
2005-10-03 09:54:25 51°26.032 3°5.932 -999 4.083827 32.008229 -0.073352
2005-10-03 09:55:25 51°26.107 3°6.224 -999 4.083516 32.010094 -0.039642
2005-10-03 09:56:25 51°26.169 3°6.527 -999 4.081339 32.000226 -0.005933
2005-10-03 09:57:25 51°26.233 3°6.833 -999 4.078125 31.983906 -0.208189
2005-10-03 09:58:25 51°26.301 3°7.138 -999 4.076363 31.979622 -0.275608
2005-10-03 09:59:25 51°26.365 3°7.445 -999 4.074601 31.972716 -0.275608
2005-10-03 10:00:25 51°26.433 3°7.749 -999 4.075326 31.978411 -0.275608
2005-10-03 10:01:25 51°26.496 3°8.06 -999 4.076156 31.984359 -0.208189
2005-10-03 10:02:25 51°26.541 3°8.25 -999 4.074912 31.979369 -0.241899
2005-10-03 10:03:25 51°26.571 3°8.352 -999 4.075326 31.986931 -0.275608
2005-10-03 10:04:25 51°26.584 3°8.42 -999 4.075637 31.988343 -0.275608
2005-10-03 10:05:25 51°26.591 3°8.484 -999 4.076467 31.995603 -0.241899
2005-10-03 10:06:25 51°26.601 3°8.549 -999 4.076156 31.992224 -0.275608
2005-10-03 10:07:25 51°26.615 3°8.613 -999 4.076259 31.995099 -0.275608
2005-10-03 10:08:25 51°26.627 3°8.678 -999 4.075948 31.993688 -0.275608
2005-10-03 10:09:25 51°26.634 3°8.748 -999 4.075637 31.992932 -0.275608
2005-10-03 10:10:25 51°26.643 3°8.816 -999 4.075637 31.993588 -0.275608
2005-10-03 10:11:25 51°26.656 3°8.881 -999 4.075741 31.994496 -0.309317
2005-10-03 10:12:25 51°26.671 3°8.938 -999 4.075948 31.994999 -0.275608
2005-10-03 10:13:25 51°26.689 3°8.993 -999 4.075741 31.993184 -0.275608
2005-10-03 10:14:25 51°26.706 3°9.046 -999 4.075637 31.9949 -0.275608
2005-10-03 10:15:25 51°26.725 3°9.101 -999 4.075534 31.995304 -0.241899
2005-10-03 10:16:25 51°26.743 3°9.157 -999 4.075845 31.996059 -0.241899
2005-10-03 10:17:25 51°26.764 3°9.211 -999 4.075948 31.996967 -0.241899
2005-10-03 10:18:25 51°26.784 3°9.263 -999 4.076259 31.998378 -0.208189
2005-10-03 10:19:25 51°26.805 3°9.315 -999 4.076778 32.001605 -0.241899
2005-10-03 10:20:25 51°26.824 3°9.367 -999 4.077089 32.001704 -0.241899
2005-10-03 10:21:25 51°26.846 3°9.417 -999 4.077504 32.00599 -0.241899
2005-10-03 10:22:25 51°26.87 3°9.469 -999 4.078229 32.009063 -0.275608
2005-10-03 10:23:25 51°26.897 3°9.519 -999 4.079058 32.012387 -0.241899
2005-10-03 10:24:25 51°26.923 3°9.568 -999 4.079784 32.016115 -0.275608
2005-10-03 10:25:25 51°26.949 3°9.619 -999 4.080303 32.018684 -0.241899
2005-10-03 10:26:25 51°26.974 3°9.669 -999 4.081236 32.022914 -0.275608
2005-10-03 10:27:25 51°27.001 3°9.72 -999 4.08248 32.031178 -0.275608
2005-10-03 10:28:25 51°27.026 3°9.773 -999 4.083413 32.035406 -0.275608
2005-10-03 10:29:25 51°27.053 3°9.825 -999 4.084346 32.038978 -0.275608
2005-10-03 10:30:25 51°27.079 3°9.878 -999 4.08476 32.041294 -0.275608
2005-10-03 10:31:25 51°27.105 3°9.932 -999 4.085279 32.04583 -0.275608
2005-10-03 10:32:25 51°27.132 3°9.985 -999 4.085797 32.048397 -0.309317
2005-10-03 10:33:25 51°27.158 3°10.039 -999 4.086315 32.050307 -0.309317
2005-10-03 10:34:25 51°27.184 3°10.094 -999 4.086523 32.052121 -0.309317
2005-10-03 10:35:25 51°27.21 3°10.149 -999 4.086834 32.054186 -0.309317
2005-10-03 10:36:25 51°27.238 3°10.203 -999 4.086937 32.055093 -0.309317
2005-10-03 10:37:25 51°27.266 3°10.258 -999 4.086937 32.056405 -0.275608
2005-10-03 10:38:25 51°27.293 3°10.313 -999 4.086834 32.056811 -0.275608
2005-10-03 10:39:25 51°27.32 3°10.37 -999 4.086834 32.057467 -0.275608
2005-10-03 10:40:25 51°27.347 3°10.425 -999 4.086937 32.060343 -0.275608
2005-10-03 10:41:25 51°27.373 3°10.483 -999 4.087041 32.060594 -0.275608
2005-10-03 10:42:25 51°27.399 3°10.542 -999 4.087145 32.061501 -0.309317
2005-10-03 10:43:25 51°27.426 3°10.598 -999 4.087248 32.062408 -0.309317
2005-10-03 10:44:25 51°27.446 3°10.646 -999 4.087041 32.062564 -0.275608
2005-10-03 10:45:25 51°27.457 3°10.684 -999 4.086834 32.062062 -0.275608
2005-10-03 10:46:25 51°27.458 3°10.753 -999 4.087041 32.061251 -0.275608
2005-10-03 10:47:25 51°27.402 3°10.823 -999 4.086937 32.061656 -0.241899
2005-10-03 10:48:25 51°27.333 3°10.79 -999 4.08673 32.061155 -0.241899
2005-10-03 10:49:25 51°27.289 3°10.74 -999 4.086419 32.061059 -0.208189
2005-10-03 10:50:25 51°27.252 3°10.699 -999 4.086419 32.059746 -0.241899
2005-10-03 10:51:25 51°27.216 3°10.662 -999 4.086523 32.059341 -0.241899
2005-10-03 10:52:25 51°27.171 3°10.63 -999 4.086419 32.058433 -0.241899
2005-10-03 10:53:25 51°27.119 3°10.608 -999 4.086626 32.058278 -0.241899
2005-10-03 10:54:25 51°27.067 3°10.592 -999 4.086834 32.05878 -0.275608
2005-10-03 10:55:25 51°27.022 3°10.571 -999 4.08673 32.057873 -0.275608
2005-10-03 10:56:25 51°26.983 3°10.545 -999 4.086626 32.056966 -0.241899
2005-10-03 10:57:25 51°26.948 3°10.516 -999 4.08673 32.055904 -0.241899
2005-10-03 10:58:25 51°26.917 3°10.482 -999 4.086834 32.056155 -0.208189
2005-10-03 10:59:25 51°26.891 3°10.438 -999 4.086937 32.055749 -0.241899
2005-10-03 11:00:25 51°26.865 3°10.387 -999 4.087041 32.056656 -0.241899
2005-10-03 11:01:25 51°26.846 3°10.332 -999 4.087456 32.057659 -0.241899
2005-10-03 11:02:25 51°26.83 3°10.275 -999 4.088285 32.060321 -0.241899
2005-10-03 11:03:25 51°26.815 3°10.219 -999 4.089322 32.064796 -0.241899
2005-10-03 11:04:25 51°26.799 3°10.161 -999 4.090358 32.070583 -0.241899
2005-10-03 11:05:25 51°26.784 3°10.103 -999 4.091602 32.074901 -0.241899
2005-10-03 11:06:25 51°26.769 3°10.045 -999 4.09295 32.080781 -0.241899
2005-10-03 11:07:25 51°26.754 3°9.987 -999 4.094298 32.086659 -0.241899
2005-10-03 11:08:25 51°26.739 3°9.93 -999 4.095645 32.091224 -0.241899
2005-10-03 11:09:25 51°26.725 3°9.874 -999 4.096682 32.097005 -0.241899
2005-10-03 11:10:25 51°26.712 3°9.817 -999 4.097719 32.100162 -0.241899
2005-10-03 11:11:25 51°26.698 3°9.762 -999 4.098756 32.105285 -0.275608
2005-10-03 11:12:25 51°26.687 3°9.707 -999 4.099481 32.108347 -0.241899
2005-10-03 11:13:25 51°26.673 3°9.65 -999 4.100103 32.110502 -0.208189
2005-10-03 11:14:25 51°26.66 3°9.592 -999 4.101555 32.115311 -0.241899
2005-10-03 11:15:25 51°26.644 3°9.533 -999 4.103213 32.122585 -0.275608
2005-10-03 11:16:25 51°26.625 3°9.476 -999 4.104872 32.129202 -0.275608
2005-10-03 11:17:25 51°26.607 3°9.418 -999 4.106324 32.134662 -0.275608
2005-10-03 11:18:25 51°26.589 3°9.361 -999 4.107775 32.140776 -0.309317
2005-10-03 11:19:25 51°26.572 3°9.304 -999 4.108604 32.144738 -0.309317
2005-10-03 11:20:25 51°26.556 3°9.246 -999 4.109434 32.147387 -0.309317
2005-10-03 11:21:25 51°26.539 3°9.191 -999 4.109745 32.14879 -0.309317
2005-10-03 11:22:25 51°26.522 3°9.136 -999 4.109537 32.146981 -0.343027
2005-10-03 11:23:25 51°26.507 3°9.083 -999 4.109537 32.146325 -0.309317
2005-10-03 11:24:25 51°26.493 3°9.028 -999 4.109226 32.144922 -0.343027
2005-10-03 11:25:25 51°26.482 3°8.965 -999 4.108501 32.139899 -0.343027
2005-10-03 11:26:25 51°26.476 3°8.893 -999 4.107049 32.131164 -0.343027
2005-10-03 11:27:25 51°26.474 3°8.819 -999 4.105701 32.123332 -0.343027
2005-10-03 11:28:25 51°26.475 3°8.749 -999 4.104354 32.11681 -0.343027
2005-10-03 11:29:25 51°26.48 3°8.707 -999 4.103732 32.110724 -0.343027
2005-10-03 11:30:25 51°26.485 3°8.692 -999 4.102798 32.103234 -0.376736
2005-10-03 11:31:25 51°26.49 3°8.69 -999 4.102384 32.100924 -0.343027
2005-10-03 11:32:25 51°26.491 3°8.698 -999 4.102798 32.100614 -0.343027
2005-10-03 11:33:25 51°26.491 3°8.713 -999 4.103213 32.102269 -0.343027
2005-10-03 11:34:25 51°26.489 3°8.733 -999 4.103731 32.103519 -0.343027
2005-10-03 11:35:25 51°26.485 3°8.755 -999 4.103835 32.103769 -0.343027
2005-10-03 11:36:25 51°26.48 3°8.781 -999 4.104353 32.106983 -0.343027
2005-10-03 11:37:25 51°26.475 3°8.808 -999 4.104664 32.107733 -0.343027
2005-10-03 11:38:25 51°26.469 3°8.838 -999 4.104872 32.108232 -0.343027
2005-10-03 11:39:25 51°26.463 3°8.869 -999 4.105494 32.110386 -0.343027
2005-10-03 11:40:25 51°26.457 3°8.9 -999 4.105805 32.110481 -0.343027
2005-10-03 11:41:25 51°26.451 3°8.931 -999 4.106012 32.111636 -0.343027
2005-10-03 11:42:25 51°26.445 3°8.964 -999 4.106531 32.110921 -0.343027
2005-10-03 11:43:25 51°26.438 3°8.996 -999 4.106634 32.109861 -0.343027
2005-10-03 11:44:25 51°26.43 3°9.03 -999 4.10653 32.110266 -0.343027
2005-10-03 11:45:25 51°26.431 3°9.041 -999 4.106323 32.112385 -0.343027
2005-10-03 11:46:25 51°26.423 3°8.997 -999 4.106323 32.110421 -0.343027
2005-10-03 11:47:25 51°26.351 3°9.057 -999 4.105598 32.109981 -0.275608
2005-10-03 11:48:25 51°26.34 3°9.308 -999 4.105805 32.109826 -0.275608
2005-10-03 11:49:25 51°26.341 3°9.675 -999 4.103628 32.094758 -0.275608
2005-10-03 11:50:25 51°26.34 3°10.055 -999 4.10228 32.091507 -0.275608
2005-10-03 11:51:25 51°26.323 3°10.431 -999 4.105494 32.114316 -0.241899
2005-10-03 11:52:25 51°26.194 3°10.739 -999 4.109123 32.134187 -0.208189
2005-10-03 11:53:25 51°26.024 3°10.988 -999 4.106634 32.120337 -0.14077
2005-10-03 11:54:25 51°25.85 3°11.233 -999 4.100207 32.091742 -0.039642
2005-10-03 11:55:25 51°25.677 3°11.477 -999 4.092431 32.054617 0.061486
2005-10-03 11:56:25 51°25.504 3°11.727 -999 4.084864 32.017947 0.095195
2005-10-03 11:57:25 51°25.334 3°11.98 -999 4.077918 31.986021 0.196324
2005-10-03 11:58:26 51°25.16 3°12.237 -999 4.072942 31.964749 0.297452
2005-10-03 11:59:25 51°24.993 3°12.491 -999 4.069003 31.94533 0.128905
2005-10-03 12:00:26 51°24.825 3°12.763 -999 4.064338 31.923473 0.027777
2005-10-03 12:01:25 51°24.663 3°13.028 -999 4.061021 31.910133 -0.17448
2005-10-03 12:02:25 51°24.499 3°13.295 -999 4.06413 31.898096 0.162614
2005-10-03 12:03:25 51°24.336 3°13.573 -999 4.087766 32.015822 0.128905
2005-10-03 12:04:25 51°24.173 3°13.857 -999 4.095748 32.032554 -0.208189
2005-10-03 12:05:25 51°24.063 3°14.198 -999 4.087869 31.961871 -0.107061
2005-10-03 12:06:25 51°24.059 3°14.605 -999 4.091083 32.00622 0.095195
2005-10-03 12:07:26 51°24.057 3°15.019 -999 4.098755 32.056824 0.364871
2005-10-03 12:08:25 51°24.049 3°15.42 -999 4.086003 31.962547 0.162614
2005-10-03 12:09:25 51°24.04 3°15.825 -999 4.059566 31.733317 0.061486
2005-10-03 12:10:25 51°24.033 3°16.233 -999 4.049096 31.645953 0.095195
2005-10-03 12:11:25 51°24.004 3°16.638 -999 4.044017 31.612019 0.128905
2005-10-03 12:12:26 51°23.961 3°17.047 -999 4.036138 31.549815 0.128905
2005-10-03 12:13:25 51°23.89 3°17.428 -999 4.028571 31.480674 0.095195
2005-10-03 12:14:26 51°23.805 3°17.811 -999 4.027016 31.489633 0.297452
2005-10-03 12:15:26 51°23.738 3°18.149 -999 4.025876 31.479051 0.533418
2005-10-03 12:16:26 51°23.7 3°18.375 -999 4.023284 31.454539 0.567127
2005-10-03 12:17:24 51°23.69 3°18.532 -999 4.020382 31.408717 0.364871
2005-10-03 12:18:26 51°23.691 3°18.665 -999 4.017893 31.368489 0.297452
2005-10-03 12:19:26 51°23.692 3°18.776 -999 4.016338 31.34473 0.297452
2005-10-03 12:20:25 51°23.693 3°18.873 -999 4.015509 31.334323 0.297452
2005-10-03 12:21:26 51°23.694 3°18.971 -999 4.015198 31.33098 0.297452
2005-10-03 12:22:26 51°23.693 3°19.072 -999 4.014369 31.323769 0.297452
2005-10-03 12:23:26 51°23.689 3°19.186 -999 4.014369 31.318023 0.297452
2005-10-03 12:24:25 51°23.687 3°19.317 -999 4.013747 31.313892 0.364871
2005-10-03 12:25:25 51°23.682 3°19.436 -999 4.012607 31.306532 0.465999
2005-10-03 12:26:25 51°23.677 3°19.542 -999 4.011985 31.300486 0.533418
2005-10-03 12:27:25 51°23.674 3°19.639 -999 4.011674 31.299059 0.668255
2005-10-03 12:28:25 51°23.673 3°19.733 -999 4.011466 31.295343 0.701965
2005-10-03 12:29:26 51°23.674 3°19.825 -999 4.011363 31.288063 0.701965
2005-10-03 12:30:26 51°23.675 3°19.914 -999 4.010844 31.278459 0.769383
2005-10-03 12:31:24 51°23.674 3°19.998 -999 4.009393 31.259479 1.005349
2005-10-03 12:32:25 51°23.674 3°20.086 -999 4.007216 31.234842 1.140187
2005-10-03 12:33:24 51°23.675 3°20.17 -999 4.005765 31.21588 1.106477
2005-10-03 12:34:25 51°23.676 3°20.255 -999 4.004935 31.201692 1.072768
2005-10-03 12:35:26 51°23.677 3°20.341 -999 4.004106 31.191319 1.106477
2005-10-03 12:36:25 51°23.677 3°20.425 -999 4.002655 31.177454 1.342443
2005-10-03 12:37:26 51°23.676 3°20.511 -999 4.001515 31.166924 1.477281
2005-10-03 12:38:25 51°23.672 3°20.595 -999 4.000789 31.158091 1.5447
2005-10-03 12:39:25 51°23.668 3°20.681 -999 3.999234 31.147135 1.612118
2005-10-03 12:40:25 51°23.664 3°20.766 -999 3.998509 31.135137 1.477281
2005-10-03 12:41:26 51°23.661 3°20.85 -999 3.996124 31.108758 1.140187
2005-10-03 12:42:25 51°23.656 3°20.929 -999 3.994466 31.087418 0.93793
2005-10-03 12:43:25 51°23.653 3°21.008 -999 3.9926 31.065556 0.803093
2005-10-03 12:44:25 51°23.65 3°21.087 -999 3.989387 31.028242 0.668255
2005-10-03 12:45:25 51°23.646 3°21.165 -999 3.986277 30.995001 0.533418
2005-10-03 12:46:26 51°23.643 3°21.242 -999 3.983478 30.970133 0.499708
2005-10-03 12:47:25 51°23.639 3°21.315 -999 3.982131 30.956577 0.432289
2005-10-03 12:48:25 51°23.636 3°21.386 -999 3.981716 30.9511 0.432289
2005-10-03 12:49:26 51°23.633 3°21.454 -999 3.981094 30.946344 0.432289
2005-10-03 12:50:25 51°23.631 3°21.517 -999 3.981301 30.94311 0.432289
2005-10-03 12:51:26 51°23.629 3°21.585 -999 3.981405 30.940236 0.39858
2005-10-03 12:52:26 51°23.623 3°21.673 -999 3.981094 30.936288 0.39858
2005-10-03 12:53:25 51°23.614 3°21.772 -999 3.980887 30.932609 0.364871
2005-10-03 12:54:26 51°23.604 3°21.884 -999 3.981094 30.930635 0.331161
2005-10-03 12:55:25 51°23.586 3°21.994 -999 3.981094 30.928123 0.331161
2005-10-03 12:56:25 51°23.508 3°22.016 -999 3.980472 30.918348 0.465999
2005-10-03 12:57:25 51°23.47 3°21.991 -999 3.979125 30.907945 0.600836
2005-10-03 12:58:25 51°23.452 3°21.946 -999 3.978917 30.906151 0.701965
2005-10-03 12:59:26 51°23.452 3°21.765 -999 3.979539 30.909022 0.567127
2005-10-03 13:00:26 51°23.459 3°21.562 -999 3.980887 30.921308 0.769383
2005-10-03 13:01:25 51°23.472 3°21.461 -999 3.982338 30.938259 0.668255
2005-10-03 13:02:25 51°23.473 3°21.392 -999 3.982234 30.941131 0.499708
2005-10-03 13:03:25 51°23.468 3°21.323 -999 3.982131 30.942747 0.39858
2005-10-03 13:04:25 51°23.466 3°21.253 -999 3.982338 30.947055 0.432289
2005-10-03 13:05:25 51°23.461 3°21.184 -999 3.983063 30.956479 0.432289
2005-10-03 13:06:25 51°23.457 3°21.113 -999 3.983893 30.963658 0.432289
2005-10-03 13:07:25 51°23.454 3°21.04 -999 3.983996 30.969587 0.432289
2005-10-03 13:08:25 51°23.451 3°20.966 -999 3.984618 30.978749 0.465999
2005-10-03 13:09:25 51°23.455 3°20.892 -999 3.985448 30.989078 0.499708
2005-10-03 13:10:25 51°23.461 3°20.826 -999 3.986173 31.000402 0.533418
2005-10-03 13:11:25 51°23.467 3°20.763 -999 3.988039 31.017197 0.499708
2005-10-03 13:12:25 51°23.472 3°20.703 -999 3.989179 31.03023 0.499708
2005-10-03 13:13:26 51°23.478 3°20.639 -999 3.990631 31.047854 0.567127
2005-10-03 13:14:26 51°23.481 3°20.574 -999 3.992496 31.070343 0.533418
2005-10-03 13:15:25 51°23.484 3°20.508 -999 3.993637 31.082757 0.533418
2005-10-03 13:16:25 51°23.489 3°20.439 -999 3.994673 31.09554 0.567127
2005-10-03 13:17:25 51°23.495 3°20.37 -999 3.99799 31.135075 0.634546
2005-10-03 13:18:26 51°23.499 3°20.3 -999 4.003381 31.204711 0.836802
2005-10-03 13:19:25 51°23.504 3°20.232 -999 4.008253 31.264859 1.005349
2005-10-03 13:20:25 51°23.509 3°20.165 -999 4.012814 31.317273 1.072768
2005-10-03 13:21:25 51°23.513 3°20.099 -999 4.017064 31.365752 1.140187
2005-10-03 13:22:26 51°23.515 3°20.033 -999 4.020485 31.406414 1.140187
2005-10-03 13:23:25 51°23.515 3°19.97 -999 4.023906 31.441974 1.005349
2005-10-03 13:24:25 51°23.514 3°19.906 -999 4.026394 31.471994 0.904221
2005-10-03 13:25:25 51°23.513 3°19.841 -999 4.028053 31.487731 0.93793
2005-10-03 13:26:25 51°23.512 3°19.775 -999 4.030022 31.510041 0.97164
2005-10-03 13:27:25 51°23.511 3°19.711 -999 4.03137 31.520498 1.039059
2005-10-03 13:28:25 51°23.51 3°19.647 -999 4.031785 31.524111 1.039059
2005-10-03 13:29:25 51°23.51 3°19.583 -999 4.032096 31.524246 1.005349
2005-10-03 13:30:25 51°23.509 3°19.518 -999 4.031785 31.522824 0.97164
2005-10-03 13:31:25 51°23.51 3°19.453 -999 4.031577 31.521661 0.97164
2005-10-03 13:32:25 51°23.509 3°19.381 -999 4.031681 31.523208 1.039059
2005-10-03 13:33:25 51°23.509 3°19.308 -999 4.032199 31.529013 1.072768
2005-10-03 13:34:26 51°23.509 3°19.233 -999 4.035205 31.554572 1.106477
2005-10-03 13:35:25 51°23.51 3°19.166 -999 4.039663 31.601823 1.207606
2005-10-03 13:36:26 51°23.51 3°19.104 -999 4.043291 31.636699 0.97164
2005-10-03 13:37:25 51°23.508 3°19.073 -999 4.045987 31.660858 0.870512
2005-10-03 13:38:25 51°23.498 3°19.047 -999 4.047335 31.675852 0.735674
2005-10-03 13:39:26 51°23.477 3°19.061 -999 4.047749 31.680118 0.701965
2005-10-03 13:40:25 51°23.475 3°19.093 -999 4.047749 31.67947 0.634546
2005-10-03 13:41:25 51°23.473 3°19.128 -999 4.047645 31.675976 0.600836
2005-10-03 13:42:25 51°23.472 3°19.165 -999 4.047438 31.673519 0.600836
2005-10-03 13:43:25 51°23.47 3°19.202 -999 4.04692 31.669644 0.567127
2005-10-03 13:44:25 51°23.468 3°19.236 -999 4.04609 31.659821 0.533418
2005-10-03 13:45:25 51°23.466 3°19.27 -999 4.045054 31.650131 0.499708
2005-10-03 13:46:11 51°23.458 3°19.313 -999 4.043706 31.637083 0.533418
2005-10-03 13:46:41 51°23.432 3°19.364 -999 4.043084 31.629073 0.567127
2005-10-03 13:47:40 51°23.33 3°19.345 -999 4.03873 31.583361 0.701965
2005-10-03 13:48:40 51°23.27 3°19.131 -999 4.033754 31.5445 0.465999
2005-10-03 13:49:40 51°23.237 3°18.863 -999 4.032718 31.53933 0.465999
2005-10-03 13:50:40 51°23.2 3°18.551 -999 4.034376 31.5525 0.499708
2005-10-03 13:51:40 51°23.162 3°18.236 -999 4.036761 31.571996 0.533418
2005-10-03 13:52:40 51°23.126 3°17.922 -999 4.038315 31.586844 0.533418
2005-10-03 13:53:41 51°23.088 3°17.606 -999 4.0407 31.613448 0.533418
2005-10-03 13:54:41 51°23.052 3°17.295 -999 4.040182 31.609573 0.364871
2005-10-03 13:55:40 51°23.016 3°16.989 -999 4.038212 31.588522 0.297452
2005-10-03 13:56:40 51°22.98 3°16.679 -999 4.038315 31.584908 0.364871
2005-10-03 13:57:40 51°22.943 3°16.372 -999 4.042047 31.610989 0.331161
2005-10-03 13:58:41 51°22.902 3°16.058 -999 4.047749 31.654237 0.263742
2005-10-03 13:59:40 51°22.864 3°15.756 -999 4.053036 31.695157 0.196324
2005-10-03 14:00:40 51°22.833 3°15.446 -999 4.057079 31.729762 0.162614
2005-10-03 14:01:40 51°22.802 3°15.136 -999 4.059878 31.754171 0.128905
2005-10-03 14:02:40 51°22.771 3°14.827 -999 4.059048 31.73981 0.095195
2005-10-03 14:03:40 51°22.742 3°14.517 -999 4.053554 31.693205 0.061486
2005-10-03 14:04:40 51°22.712 3°14.21 -999 4.045986 31.635642 0.027777
2005-10-03 14:05:40 51°22.682 3°13.902 -999 4.034791 31.538073 0.027777
2005-10-03 14:06:40 51°22.65 3°13.595 -999 4.03365 31.524276 0.027777
2005-10-03 14:07:40 51°22.619 3°13.288 -999 4.021729 31.425583 0.027777
2005-10-03 14:08:40 51°22.589 3°12.979 -999 4.015821 31.373492 0.061486
2005-10-03 14:09:40 51°22.557 3°12.671 -999 4.010016 31.319122 0.061486
2005-10-03 14:10:41 51°22.479 3°12.379 -999 4.007735 31.292887 0.061486
2005-10-03 14:11:40 51°22.406 3°12.1 -999 4.00504 31.268801 0.162614
2005-10-03 14:12:40 51°22.332 3°11.818 -999 3.999028 31.220965 0.196324
2005-10-03 14:13:40 51°22.257 3°11.535 -999 3.99198 31.156481 0.128905
2005-10-03 14:14:40 51°22.184 3°11.247 -999 3.989181 31.133417 0.162614
2005-10-03 14:15:40 51°22.114 3°10.956 -999 3.986071 31.108286 0.128905
2005-10-03 14:16:40 51°22.041 3°10.662 -999 3.985346 31.107692 0.162614
2005-10-03 14:17:41 51°21.969 3°10.362 -999 3.987212 31.11947 0.128905
2005-10-03 14:18:40 51°21.9 3°10.068 -999 3.991772 31.157857 0.162614
2005-10-03 14:19:41 51°21.831 3°9.762 -999 3.999546 31.221013 0.196324
2005-10-03 14:20:40 51°21.759 3°9.469 -999 4.002863 31.24859 0.230033
2005-10-03 14:21:41 51°21.691 3°9.164 -999 4.008357 31.295744 0.263742
2005-10-03 14:22:40 51°21.623 3°8.873 -999 4.011467 31.319606 0.230033
2005-10-03 14:23:40 51°21.555 3°8.576 -999 4.008979 31.301155 0.230033
2005-10-03 14:24:40 51°21.488 3°8.275 -999 4.006491 31.277597 0.263742
2005-10-03 14:25:40 51°21.419 3°7.976 -999 4.004936 31.270452 0.39858
2005-10-03 14:26:41 51°21.343 3°7.677 -999 4.004004 31.269994 0.39858
2005-10-03 14:27:40 51°21.269 3°7.392 -999 4.001931 31.262805 0.499708
2005-10-03 14:28:40 51°21.214 3°7.238 -999 4.00048 31.254003 0.567127
2005-10-03 14:29:40 51°21.182 3°7.236 -999 3.999858 31.240294 0.533418
2005-10-03 14:30:41 51°21.181 3°7.263 -999 3.998821 31.224898 0.465999
2005-10-03 14:31:40 51°21.183 3°7.29 -999 3.998199 31.212478 0.331161
2005-10-03 14:32:41 51°21.179 3°7.33 -999 3.998302 31.208921 0.297452
2005-10-03 14:33:41 51°21.133 3°7.335 -999 3.998302 31.20701 0.432289
2005-10-03 14:34:40 51°21.128 3°7.241 -999 3.997681 31.201602 0.230033
2005-10-03 14:35:41 51°21.127 3°7.144 -999 3.996955 31.202295 0.297452
2005-10-03 14:36:40 51°21.12 3°7.055 -999 3.99623 31.202353 0.263742
2005-10-03 14:37:41 51°21.114 3°6.965 -999 3.995919 31.204107 0.297452
2005-10-03 14:38:40 51°21.11 3°6.882 -999 3.995815 31.207665 0.364871
2005-10-03 14:39:40 51°21.1 3°6.804 -999 3.995711 31.206763 0.331161
2005-10-03 14:40:40 51°21.09 3°6.726 -999 3.995504 31.207509 0.297452
2005-10-03 14:41:40 51°21.079 3°6.647 -999 3.995401 31.209794 0.297452
2005-10-03 14:42:41 51°21.069 3°6.567 -999 3.995919 31.212392 0.364871
2005-10-03 14:43:40 51°21.058 3°6.49 -999 3.996023 31.215207 0.39858
2005-10-03 14:44:40 51°21.043 3°6.414 -999 3.995297 31.213354 0.364871
2005-10-03 14:45:40 51°21.027 3°6.338 -999 3.994882 31.211021 0.364871
2005-10-03 14:46:40 51°21.01 3°6.262 -999 3.994053 31.20699 0.465999
2005-10-03 14:47:40 51°20.992 3°6.186 -999 3.99312 31.205246 0.39858
2005-10-03 14:48:41 51°20.975 3°6.11 -999 3.992499 31.203657 0.331161
2005-10-03 14:49:41 51°20.958 3°6.036 -999 3.992395 31.20403 0.331161
2005-10-03 14:50:40 51°20.943 3°5.961 -999 3.992084 31.205149 0.331161
2005-10-03 14:51:41 51°20.928 3°5.883 -999 3.992499 31.206846 0.297452
2005-10-03 14:52:41 51°20.912 3°5.807 -999 3.992499 31.207484 0.297452
2005-10-03 14:53:41 51°20.897 3°5.731 -999 3.992084 31.204512 0.297452
2005-10-03 14:54:41 51°20.88 3°5.657 -999 3.991566 31.201912 0.364871
2005-10-03 14:55:41 51°20.865 3°5.582 -999 3.991462 31.200371 0.331161
2005-10-03 14:56:40 51°20.849 3°5.508 -999 3.990944 31.197133 0.263742
2005-10-03 14:57:40 51°20.834 3°5.432 -999 3.990426 31.197085 0.263742
2005-10-03 14:58:41 51°20.818 3°5.355 -999 3.990633 31.197614 0.263742
2005-10-03 14:59:40 51°20.803 3°5.28 -999 3.990633 31.196338 0.263742
2005-10-03 15:00:40 51°20.787 3°5.205 -999 3.990322 31.194906 0.263742
2005-10-03 15:01:40 51°20.772 3°5.129 -999 3.989908 31.195122 0.230033
2005-10-03 15:02:41 51°20.757 3°5.052 -999 3.989493 31.195976 0.128905
2005-10-03 15:03:40 51°20.742 3°4.978 -999 3.989804 31.196133 0.095195
2005-10-03 15:04:40 51°20.726 3°4.901 -999 3.989597 31.198156 0.095195
2005-10-03 15:05:40 51°20.711 3°4.826 -999 3.9897 31.200335 0.095195
2005-10-03 15:06:40 51°20.696 3°4.75 -999 3.989908 31.204056 0.162614
2005-10-03 15:07:41 51°20.678 3°4.674 -999 3.99053 31.210114 0.230033
2005-10-03 15:08:40 51°20.66 3°4.6 -999 3.992188 31.222011 0.263742
2005-10-03 15:09:40 51°20.641 3°4.525 -999 3.994468 31.2438 0.331161
2005-10-03 15:10:40 51°20.631 3°4.448 -999 3.997578 31.276021 0.263742
2005-10-03 15:11:41 51°20.618 3°4.346 -999 3.998718 31.293005 0.162614
2005-10-03 15:12:41 51°20.614 3°4.257 -999 3.999029 31.300842 0.162614
2005-10-03 15:13:40 51°20.622 3°4.199 -999 3.998926 31.299938 0.128905
2005-10-03 15:14:41 51°20.625 3°4.118 -999 3.998615 31.297866 0.128905
2005-10-03 15:15:40 51°20.606 3°4.023 -999 3.998511 31.2944 0.128905
2005-10-03 15:16:41 51°20.589 3°3.927 -999 3.997993 31.286037 0.128905
2005-10-03 15:17:41 51°20.582 3°3.837 -999 3.996645 31.272368 0.128905
2005-10-03 15:18:40 51°20.574 3°3.758 -999 3.995505 31.259868 0.095195
2005-10-03 15:19:40 51°20.562 3°3.682 -999 3.994676 31.250082 0.095195
2005-10-03 15:20:41 51°20.547 3°3.606 -999 3.993846 31.237741 0.027777
2005-10-03 15:21:41 51°20.532 3°3.531 -999 3.993432 31.227739 -0.005933
2005-10-03 15:22:41 51°20.516 3°3.455 -999 3.993743 31.228532 -0.005933
2005-10-03 15:23:41 51°20.5 3°3.378 -999 3.994261 31.235603 -0.005933
2005-10-03 15:24:40 51°20.482 3°3.305 -999 3.994779 31.245231 -0.005933
2005-10-03 15:25:41 51°20.466 3°3.226 -999 3.994779 31.254183 0.027777
2005-10-03 15:26:41 51°20.45 3°3.148 -999 3.99478 31.26122 0.095195
2005-10-03 15:27:41 51°20.434 3°3.071 -999 3.995194 31.269316 0.128905
2005-10-03 15:28:41 51°20.418 3°2.993 -999 3.99592 31.279486 0.128905
2005-10-03 15:29:40 51°20.402 3°2.917 -999 3.997164 31.292898 0.095195
2005-10-03 15:30:41 51°20.386 3°2.838 -999 3.997475 31.291766 0.061486
2005-10-03 15:31:40 51°20.37 3°2.76 -999 3.999133 31.30495 0.027777
2005-10-03 15:32:41 51°20.352 3°2.68 -999 4.000584 31.318249 0.027777
2005-10-03 15:33:41 51°20.335 3°2.599 -999 4.001932 31.332571 0.027777
2005-10-03 15:34:41 51°20.318 3°2.518 -999 4.005249 31.370505 0.061486
2005-10-03 15:35:41 51°20.301 3°2.436 -999 4.006597 31.379053 0.027777
2005-10-03 15:36:41 51°20.283 3°2.354 -999 4.006597 31.382909 0.027777
2005-10-03 15:37:40 51°20.269 3°2.276 -999 4.004834 31.364959 0.027777
2005-10-03 15:38:41 51°20.254 3°2.199 -999 4.004005 31.362218 0.027777
2005-10-03 15:39:40 51°20.239 3°2.124 -999 4.002761 31.352004 0.027777
2005-10-03 15:40:41 51°20.226 3°2.047 -999 4.001517 31.339222 -0.005933
2005-10-03 15:41:41 51°20.21 3°1.972 -999 4.000999 31.335983 0.027777
2005-10-03 15:42:41 51°20.191 3°1.898 -999 4.00131 31.341907 0.027777
2005-10-03 15:43:41 51°20.172 3°1.824 -999 4.001829 31.347715 0.027777
2005-10-03 15:44:40 51°20.154 3°1.751 -999 4.002761 31.359071 -0.005933
2005-10-03 15:45:40 51°20.134 3°1.675 -999 4.005353 31.380409 -0.005933
2005-10-03 15:46:41 51°20.114 3°1.597 -999 4.009188 31.423556 0.061486
2005-10-03 15:47:41 51°20.098 3°1.52 -999 4.01292 31.465184 0.095195
2005-10-03 15:48:41 51°20.079 3°1.444 -999 4.015719 31.496748 0.095195
2005-10-03 15:49:41 51°20.061 3°1.369 -999 4.017585 31.517585 0.095195
2005-10-03 15:50:41 51°20.027 3°1.261 -999 4.015926 31.502438 0.061486
2005-10-03 15:51:40 51°19.969 3°1.101 -999 4.013231 31.475648 0.061486
2005-10-03 15:52:41 51°19.933 3°0.994 -999 4.012298 31.46943 0.061486
2005-10-03 15:53:41 51°19.91 3°0.924 -999 4.012713 31.476929 0.095195
2005-10-03 15:54:41 51°19.901 3°0.89 -999 4.013335 31.48495 0.128905
2005-10-03 15:55:41 51°19.899 3°0.871 -999 4.014579 31.495826 0.128905
2005-10-03 15:56:41 51°19.896 3°0.85 -999 4.016963 31.522495 0.162614
2005-10-03 15:57:41 51°19.893 3°0.828 -999 4.019036 31.543218 0.128905
2005-10-03 15:58:40 51°19.89 3°0.807 -999 4.019555 31.545809 0.095195
2005-10-03 15:59:40 51°19.889 3°0.783 -999 4.020073 31.551638 0.128905
2005-10-03 16:00:41 51°19.889 3°0.761 -999 4.021213 31.560965 0.095195
2005-10-03 16:01:40 51°19.89 3°0.739 -999 4.022561 31.576643 0.061486
2005-10-03 16:02:41 51°19.893 3°0.718 -999 4.023494 31.5874 0.027777
2005-10-03 16:03:41 51°19.895 3°0.698 -999 4.023701 31.591809 0.027777
2005-10-03 16:04:41 51°19.898 3°0.678 -999 4.023287 31.590126 -0.005933
2005-10-03 16:05:40 51°19.905 3°0.634 -999 4.022976 31.586756 -0.005933
2005-10-03 16:06:41 51°19.899 3°0.488 -999 4.022665 31.584683 0.027777
2005-10-03 16:07:41 51°19.824 3°0.206 -999 4.023598 31.618822 0.095195
2005-10-03 16:08:40 51°19.746 2°59.893 -999 4.03044 31.695047 -0.005933
2005-10-03 16:09:40 51°19.667 2°59.571 -999 4.039563 31.788762 0.128905
2005-10-03 16:10:40 51°19.586 2°59.251 -999 4.046094 31.865087 -0.073352
2005-10-03 16:11:41 51°19.506 2°58.926 -999 4.069524 32.10994 -0.107061
2005-10-03 16:12:41 51°19.417 2°58.618 -999 4.087874 32.302805 -0.14077
2005-10-03 16:13:41 51°19.322 2°58.314 -999 4.089637 32.317675 -0.073352
2005-10-03 16:14:41 51°19.225 2°58.011 -999 4.102493 32.443771 0.027777
2005-10-03 16:15:41 51°19.127 2°57.708 -999 4.123126 32.644119 0.061486
2005-10-03 16:16:41 51°19.023 2°57.41 -999 4.123126 32.644119 -0.005933
2005-10-03 16:17:41 51°18.909 2°57.121 -999 4.137331 32.783909 0.128905
2005-10-03 16:18:41 51°18.791 2°56.836 -999 4.125303 32.668089 -0.005933
2005-10-03 16:19:41 51°18.666 2°56.556 -999 4.112861 32.525194 -0.17448
2005-10-03 16:20:40 51°18.544 2°56.278 -999 4.1477 32.86272 -0.208189
2005-10-03 16:21:40 51°18.417 2°55.994 -999 4.172897 33.095289 -0.14077
2005-10-03 16:22:41 51°18.287 2°55.707 -999 4.159936 32.980522 -0.14077
2005-10-03 16:23:40 51°18.161 2°55.431 -999 4.18586 33.220432 -0.14077
2005-10-03 16:24:41 51°18.029 2°55.145 -999 4.197163 33.330307 -0.107061
2005-10-03 16:25:41 51°17.901 2°54.866 -999 4.204319 33.406243 -0.14077
2005-10-03 16:26:41 51°17.776 2°54.583 -999 4.212304 33.49796 -0.17448
2005-10-03 16:27:41 51°17.646 2°54.306 -999 4.209297 33.464995 -0.208189
2005-10-03 16:28:41 51°17.516 2°54.03 -999 4.20826 33.449543 -0.208189
2005-10-03 16:29:41 51°17.382 2°53.761 -999 4.207119 33.459527 -0.208189
2005-10-03 16:30:40 51°17.241 2°53.506 -999 4.20629 33.459096 -0.241899
2005-10-03 16:31:41 51°17.055 2°53.332 -999 4.19706 33.395798 -0.275608
2005-10-03 16:32:41 51°16.849 2°53.263 -999 4.190528 33.347427 -0.241899
2005-10-03 16:33:41 51°16.632 2°53.249 -999 4.187624 33.319543 -0.241899
2005-10-03 16:34:41 51°16.417 2°53.263 -999 4.186276 33.313788 -0.14077
2005-10-03 16:35:40 51°16.206 2°53.288 -999 4.188972 33.353688 -0.14077
2005-10-03 16:36:41 51°15.992 2°53.349 -999 4.165122 33.160963 -0.17448
2005-10-03 16:37:40 51°15.791 2°53.452 -999 4.157553 33.119844 -0.17448
2005-10-03 16:38:40 51°15.591 2°53.571 -999 4.166678 33.205864 -0.073352
2005-10-03 16:39:41 51°15.401 2°53.731 -999 4.162427 33.159059 -0.005933
2005-10-03 16:40:41 51°15.218 2°53.9 -999 4.148636 33.035037 -0.107061
2005-10-03 16:41:41 51°15.044 2°54.079 -999 4.142207 32.979949 -0.14077
2005-10-03 16:42:41 51°14.88 2°54.274 -999 4.121885 32.821234 -0.107061
2005-10-03 16:43:41 51°14.717 2°54.475 -999 4.109961 32.720058 -0.107061
2005-10-03 16:44:41 51°14.567 2°54.68 -999 4.108199 32.705079 -0.14077
2005-10-03 16:45:40 51°14.437 2°54.889 -999 4.095032 32.582025 -0.107061
2005-10-03 16:46:41 51°14.329 2°55.126 -999 4.090574 32.559396 -0.039642
2005-10-03 16:47:41 51°14.217 2°55.327 -999 3.865964 30.578109 0.128905
2005-10-03 16:48:41 51°14.099 2°55.434 -999 3.783176 29.846914 0.061486
2005-10-03 16:49:41 51°13.976 2°55.521 -999 3.702889 29.149928 -0.039642
2005-10-03 16:50:40 51°13.855 2°55.609 -999 3.646956 28.652472 -0.039642
2005-10-03 16:51:41 51°13.749 2°55.721 -999 0.073932 0.444816 0.701965
2005-10-03 16:52:41 51°13.685 2°55.838 -999 0.059835 0.357287 0.701965
2005-10-03 16:53:40 51°13.64 2°55.942 -999 0.051089 0.303491 0.735674
2005-10-03 16:54:41 51°13.614 2°56.044 -999 0.045739 0.270776 0.735674
2005-10-03 16:55:41 51°13.604 2°56.09 -999 0.041932 0.247612 0.735674
2005-10-03 16:56:41 51°13.6 2°56.095 -999 0.039463 0.23262 0.735674